Point Venture, Texas
Current Conditions -  °F | °C
As of 12:55 AM on Friday 28 Nov 2014 (Local Time) from KRYW Reporting Station
Clear Clear  
Wind Chill: 51°   Ceiling: Unl
Heat Index: 51°   Visibility: 10mi
Dew Point: 32°   Wind: 6mph
Humidity: 48%   Direction: 170°S
Pressure: 30.35"   Gusts: NA
Location:  30.4521°N, 97.9683°W
Report Text: KRYW 280655Z AUTO 17005KT 10SM CLR 11/00 A3035 RMK AO2 T01070000
Loading
Personal Weather Stations






























Interactive Weather Map New forecast layout! Learn more

10-Day Weather Forecast

Advertisements
Track Severe Weather on mobile